Strona główna
METAR-TAF:

METAR-TAF

Lotnisko :

Port lotniczy Al-Husajma

Al-Husajma, Maroko

Szerokość geograficzna: 35-11N, Długość geograficzna: 003-51W, wysokość: 27 m

Aktualna obserwacja pogody

Raport powstał 1 godzina i 4 minut temu, godzina 18:00 UTC
Wiatr 5 kt od północny zachód, zmienny między zachód i północ
Temperatura 36°C
Wilgotność 29%
Ciśnienie 1009 hPa
Widzialność: 8000 m

METAR: GMTA 201800Z 32005KT 280V350 8000 NSC 36/15 Q1009 NOSIG

czas: 20:04 (19:04 UTC)

Prognoza

Raport powstał 2 godziny i 4 minut temu, godzina 17:00 UTC
Prognoza ważna od 20 godzina 18 UTC do 21 godzina 24 UTC
Wiatr 6 kt od północno-północny zachód
Widzialność: 8000 m

TAF: GMTA 201700Z 2018/2124 33006KT 8000 NSC

Obserwacja i prognoza pogody dla ponad 4000 lotnisk (raport METAR i TAF).

Dostępne stacje oznaczono żółtymi i czerwonymi punktami na mapie.

Najedź kursorem aby zobaczyć nazwę stacji.

Kliknij aby zobaczyć obserwacje i prognozy pogody.

Aby zmienić mapę: kliknij na zielony przycisk z czarnym krzyżykiem, aby powiększyć; na zielony przycisk z myślnikiem, aby pomniejszyć; na zielone strzałki, aby przejść do map sąsiednich.


METAR-TAF: